Terminal Aerodrome Forecast
Issued by NWS Sterling, VA

Home | Current Version | Previous Version | Text Only | Print | Product List | Glossary On
Versions: 1 2 3 4 5 6 7 8 9 10 11 12 13 14 15 16 17 18 19 20 21 22 23
885
FTUS41 KLWX 010849 AAA
TAFBWI
TAF AMD
KBWI 010849Z 0109/0212 06008KT 3SM -RADZ BR OVC008
     FM011800 09006KT 5SM BR BKN008=

USA.gov is the U.S. government's official web portal to all federal, state and local government web resources and services.